sensor_id;sensor_type;location;lat;lon;timestamp;pressure;altitude;pressure_sealevel;temperature;humidity
43701;BME280;58809;47.984;7.964;2023-03-22T00:02:21;97090.22;;;13.60;56.94
43701;BME280;58809;47.984;7.964;2023-03-22T00:05:23;97096.59;;;12.98;58.11
43701;BME280;58809;47.984;7.964;2023-03-22T00:08:25;97095.59;;;12.99;58.47
43701;BME280;58809;47.984;7.964;2023-03-22T00:11:26;97095.97;;;12.96;58.39
43701;BME280;58809;47.984;7.964;2023-03-22T00:14:28;97094.53;;;12.93;58.29
43701;BME280;58809;47.984;7.964;2023-03-22T00:17:29;97099.09;;;12.64;58.73
43701;BME280;58809;47.984;7.964;2023-03-22T00:20:31;97095.47;;;12.37;58.91
43701;BME280;58809;47.984;7.964;2023-03-22T00:23:38;97083.97;;;12.65;58.15
43701;BME280;58809;47.984;7.964;2023-03-22T00:26:40;97086.44;;;12.66;58.07
43701;BME280;58809;47.984;7.964;2023-03-22T00:29:41;97079.50;;;12.65;58.14
43701;BME280;58809;47.984;7.964;2023-03-22T00:32:43;97078.63;;;12.58;58.13
43701;BME280;58809;47.984;7.964;2023-03-22T00:35:50;97073.25;;;12.45;58.43
43701;BME280;58809;47.984;7.964;2023-03-22T00:38:52;97070.38;;;12.40;58.30
43701;BME280;58809;47.984;7.964;2023-03-22T00:41:54;97079.06;;;12.27;58.67
43701;BME280;58809;47.984;7.964;2023-03-22T00:44:56;97062.09;;;12.21;58.50
43701;BME280;58809;47.984;7.964;2023-03-22T00:47:57;97063.09;;;12.13;58.77
43701;BME280;58809;47.984;7.964;2023-03-22T00:50:59;97067.16;;;12.09;58.61
43701;BME280;58809;47.984;7.964;2023-03-22T00:54:04;97050.56;;;12.01;58.15
43701;BME280;58809;47.984;7.964;2023-03-22T00:57:06;97048.97;;;11.85;58.70
43701;BME280;58809;47.984;7.964;2023-03-22T01:00:08;97049.81;;;11.85;58.75
43701;BME280;58809;47.984;7.964;2023-03-22T01:03:13;97053.72;;;11.89;58.29
43701;BME280;58809;47.984;7.964;2023-03-22T01:06:17;97039.41;;;11.84;58.35
43701;BME280;58809;47.984;7.964;2023-03-22T01:09:19;97039.78;;;11.81;58.77
43701;BME280;58809;47.984;7.964;2023-03-22T01:12:24;97038.97;;;11.80;58.50
43701;BME280;58809;47.984;7.964;2023-03-22T01:15:27;97033.41;;;11.75;58.61
43701;BME280;58809;47.984;7.964;2023-03-22T01:18:29;97033.16;;;11.70;58.50
43701;BME280;58809;47.984;7.964;2023-03-22T01:21:30;97039.81;;;11.59;58.40
43701;BME280;58809;47.984;7.964;2023-03-22T01:24:32;97034.84;;;11.49;58.63
43701;BME280;58809;47.984;7.964;2023-03-22T01:27:34;97035.63;;;11.43;59.05
43701;BME280;58809;47.984;7.964;2023-03-22T01:30:38;97034.84;;;11.28;59.05
43701;BME280;58809;47.984;7.964;2023-03-22T01:33:40;97027.38;;;9.31;63.13
43701;BME280;58809;47.984;7.964;2023-03-22T01:36:42;97028.34;;;12.37;57.72
43701;BME280;58809;47.984;7.964;2023-03-22T01:39:43;97018.56;;;13.12;55.34
43701;BME280;58809;47.984;7.964;2023-03-22T01:42:48;97022.09;;;13.33;54.45
43701;BME280;58809;47.984;7.964;2023-03-22T01:45:53;97017.19;;;13.50;54.09
43701;BME280;58809;47.984;7.964;2023-03-22T01:49:01;97014.97;;;13.53;53.81
43701;BME280;58809;47.984;7.964;2023-03-22T01:52:08;97016.59;;;13.54;53.78
43701;BME280;58809;47.984;7.964;2023-03-22T01:55:32;97014.16;;;13.59;53.56
43701;BME280;58809;47.984;7.964;2023-03-22T01:58:44;97023.97;;;13.52;53.77
43701;BME280;58809;47.984;7.964;2023-03-22T02:01:49;97012.91;;;13.42;53.84
43701;BME280;58809;47.984;7.964;2023-03-22T02:04:51;97014.50;;;13.29;54.20
43701;BME280;58809;47.984;7.964;2023-03-22T02:08:00;97015.34;;;13.37;54.02
43701;BME280;58809;47.984;7.964;2023-03-22T02:11:15;97008.81;;;13.33;54.00
43701;BME280;58809;47.984;7.964;2023-03-22T02:21:07;97016.41;;;13.49;53.69
43701;BME280;58809;47.984;7.964;2023-03-22T02:24:33;97015.78;;;13.47;53.78
43701;BME280;58809;47.984;7.964;2023-03-22T02:31:26;97005.69;;;13.22;53.87
43701;BME280;58809;47.984;7.964;2023-03-22T02:41:16;96989.19;;;13.40;53.50
43701;BME280;58809;47.984;7.964;2023-03-22T02:44:32;96991.44;;;13.37;53.53
43701;BME280;58809;47.984;7.964;2023-03-22T02:47:57;96985.72;;;13.33;53.76
43701;BME280;58809;47.984;7.964;2023-03-22T02:51:04;96977.13;;;13.38;53.60
43701;BME280;58809;47.984;7.964;2023-03-22T02:54:21;96983.06;;;13.46;53.38
43701;BME280;58809;47.984;7.964;2023-03-22T02:57:38;96989.19;;;13.47;53.40
43701;BME280;58809;47.984;7.964;2023-03-22T03:00:42;96984.28;;;13.44;53.27
43701;BME280;58809;47.984;7.964;2023-03-22T03:03:48;96983.25;;;13.38;53.59
43701;BME280;58809;47.984;7.964;2023-03-22T03:06:52;96992.69;;;13.34;53.40
43701;BME280;58809;47.984;7.964;2023-03-22T03:09:56;96987.09;;;13.22;53.62
43701;BME280;58809;47.984;7.964;2023-03-22T03:12:57;96991.19;;;13.18;53.74
43701;BME280;58809;47.984;7.964;2023-03-22T03:16:00;96987.13;;;13.16;53.75
43701;BME280;58809;47.984;7.964;2023-03-22T03:19:24;96994.88;;;13.17;53.68
43701;BME280;58809;47.984;7.964;2023-03-22T03:26:22;96986.31;;;13.15;53.77
43701;BME280;58809;47.984;7.964;2023-03-22T03:32:47;96997.31;;;12.99;53.85
43701;BME280;58809;47.984;7.964;2023-03-22T03:35:59;96989.13;;;13.00;54.04
43701;BME280;58809;47.984;7.964;2023-03-22T03:39:07;96987.06;;;12.96;53.91
43701;BME280;58809;47.984;7.964;2023-03-22T03:42:12;96995.66;;;12.98;54.15
43701;BME280;58809;47.984;7.964;2023-03-22T03:45:17;96999.97;;;12.99;53.95
43701;BME280;58809;47.984;7.964;2023-03-22T03:48:25;97000.16;;;12.97;53.96
43701;BME280;58809;47.984;7.964;2023-03-22T03:51:28;96997.09;;;12.94;53.91
43701;BME280;58809;47.984;7.964;2023-03-22T03:54:30;96999.72;;;12.87;53.78
43701;BME280;58809;47.984;7.964;2023-03-22T03:57:31;97005.03;;;12.80;53.76
43701;BME280;58809;47.984;7.964;2023-03-22T04:00:34;97001.13;;;12.69;53.93
43701;BME280;58809;47.984;7.964;2023-03-22T04:03:55;96999.22;;;12.63;54.15
43701;BME280;58809;47.984;7.964;2023-03-22T04:07:11;97002.50;;;12.65;54.05
43701;BME280;58809;47.984;7.964;2023-03-22T04:10:13;97007.63;;;12.60;54.15
43701;BME280;58809;47.984;7.964;2023-03-22T04:13:14;97008.19;;;12.56;54.47
43701;BME280;58809;47.984;7.964;2023-03-22T04:16:16;97000.22;;;12.56;54.58
43701;BME280;58809;47.984;7.964;2023-03-22T04:19:18;97000.00;;;12.50;54.51
43701;BME280;58809;47.984;7.964;2023-03-22T04:22:21;97002.84;;;12.42;54.36
43701;BME280;58809;47.984;7.964;2023-03-22T04:25:24;96996.06;;;12.40;54.31
43701;BME280;58809;47.984;7.964;2023-03-22T04:28:40;96993.56;;;12.25;54.76
43701;BME280;58809;47.984;7.964;2023-03-22T04:31:42;96994.31;;;12.12;54.43
43701;BME280;58809;47.984;7.964;2023-03-22T04:34:56;96982.09;;;12.18;54.79
43701;BME280;58809;47.984;7.964;2023-03-22T04:37:59;96981.88;;;12.12;54.50
43701;BME280;58809;47.984;7.964;2023-03-22T04:41:01;96968.59;;;12.06;54.76
43701;BME280;58809;47.984;7.964;2023-03-22T04:44:10;96979.25;;;12.12;54.84
43701;BME280;58809;47.984;7.964;2023-03-22T04:47:17;96970.63;;;12.10;54.35
43701;BME280;58809;47.984;7.964;2023-03-22T04:50:19;96973.28;;;12.10;54.87
43701;BME280;58809;47.984;7.964;2023-03-22T04:53:25;96970.63;;;12.10;54.83
43701;BME280;58809;47.984;7.964;2023-03-22T04:56:32;96967.13;;;12.03;54.83
43701;BME280;58809;47.984;7.964;2023-03-22T04:59:34;96968.34;;;12.01;54.88
43701;BME280;58809;47.984;7.964;2023-03-22T05:02:35;96969.59;;;12.05;54.92
43701;BME280;58809;47.984;7.964;2023-03-22T05:08:54;96967.72;;;11.99;54.84
43701;BME280;58809;47.984;7.964;2023-03-22T05:11:57;96970.00;;;12.02;54.64
43701;BME280;58809;47.984;7.964;2023-03-22T05:15:04;96966.69;;;12.00;54.79
43701;BME280;58809;47.984;7.964;2023-03-22T05:18:10;96964.66;;;11.95;54.59
43701;BME280;58809;47.984;7.964;2023-03-22T05:21:17;96974.47;;;12.01;54.58
43701;BME280;58809;47.984;7.964;2023-03-22T05:24:29;96968.56;;;11.78;54.87
43701;BME280;58809;47.984;7.964;2023-03-22T05:27:32;96963.00;;;11.66;55.04
43701;BME280;58809;47.984;7.964;2023-03-22T05:30:53;96973.66;;;11.72;55.05
43701;BME280;58809;47.984;7.964;2023-03-22T05:34:19;96964.88;;;11.72;54.74
43701;BME280;58809;47.984;7.964;2023-03-22T05:37:20;96968.88;;;11.61;55.24
43701;BME280;58809;47.984;7.964;2023-03-22T05:40:26;96965.59;;;11.59;55.30
43701;BME280;58809;47.984;7.964;2023-03-22T05:43:28;96965.47;;;11.67;55.41
43701;BME280;58809;47.984;7.964;2023-03-22T05:46:30;96970.16;;;11.65;54.92
43701;BME280;58809;47.984;7.964;2023-03-22T05:49:52;96972.63;;;11.73;55.07
43701;BME280;58809;47.984;7.964;2023-03-22T05:52:55;96967.94;;;11.69;55.09
43701;BME280;58809;47.984;7.964;2023-03-22T05:56:07;96956.72;;;11.73;55.11
43701;BME280;58809;47.984;7.964;2023-03-22T05:59:11;96961.22;;;11.73;55.08
43701;BME280;58809;47.984;7.964;2023-03-22T06:02:13;96968.63;;;11.84;55.35
43701;BME280;58809;47.984;7.964;2023-03-22T06:05:16;96965.88;;;11.99;54.80
43701;BME280;58809;47.984;7.964;2023-03-22T06:08:18;96962.91;;;12.09;54.90
43701;BME280;58809;47.984;7.964;2023-03-22T06:11:20;96966.59;;;12.15;54.53
43701;BME280;58809;47.984;7.964;2023-03-22T06:14:23;96968.25;;;12.29;54.41
43701;BME280;58809;47.984;7.964;2023-03-22T06:17:40;96964.50;;;12.51;54.45
43701;BME280;58809;47.984;7.964;2023-03-22T06:20:46;96960.25;;;12.70;54.36
43701;BME280;58809;47.984;7.964;2023-03-22T06:23:52;96969.91;;;12.98;54.23
43701;BME280;58809;47.984;7.964;2023-03-22T06:26:55;96973.44;;;13.19;54.15
43701;BME280;58809;47.984;7.964;2023-03-22T06:29:56;96974.28;;;13.33;53.85
43701;BME280;58809;47.984;7.964;2023-03-22T06:32:59;96973.25;;;13.54;53.67
43701;BME280;58809;47.984;7.964;2023-03-22T06:36:07;96984.69;;;13.67;53.59
43701;BME280;58809;47.984;7.964;2023-03-22T06:39:31;96978.75;;;13.85;53.44
43701;BME280;58809;47.984;7.964;2023-03-22T06:42:34;96976.03;;;14.05;53.38
43701;BME280;58809;47.984;7.964;2023-03-22T06:45:40;96980.09;;;14.15;53.27
43701;BME280;58809;47.984;7.964;2023-03-22T06:48:42;96971.88;;;14.30;53.43
43701;BME280;58809;47.984;7.964;2023-03-22T06:51:47;96975.88;;;14.52;53.09
43701;BME280;58809;47.984;7.964;2023-03-22T06:54:49;96972.53;;;14.70;52.83
43701;BME280;58809;47.984;7.964;2023-03-22T06:57:50;96973.72;;;14.81;53.00
43701;BME280;58809;47.984;7.964;2023-03-22T07:00:54;96973.69;;;14.88;52.54
43701;BME280;58809;47.984;7.964;2023-03-22T07:03:58;96964.75;;;15.07;52.77
43701;BME280;58809;47.984;7.964;2023-03-22T07:06:59;96973.97;;;15.36;52.22
43701;BME280;58809;47.984;7.964;2023-03-22T07:10:01;96969.31;;;15.57;52.14
43701;BME280;58809;47.984;7.964;2023-03-22T07:13:03;96969.28;;;15.82;51.94
43701;BME280;58809;47.984;7.964;2023-03-22T07:16:06;96971.53;;;16.04;51.51
43701;BME280;58809;47.984;7.964;2023-03-22T07:19:13;96965.25;;;16.16;51.47
43701;BME280;58809;47.984;7.964;2023-03-22T07:22:15;96966.38;;;16.27;51.36
43701;BME280;58809;47.984;7.964;2023-03-22T07:25:16;96974.50;;;16.51;51.14
43701;BME280;58809;47.984;7.964;2023-03-22T07:28:21;96967.97;;;16.65;50.92
43701;BME280;58809;47.984;7.964;2023-03-22T07:31:22;96969.56;;;16.85;50.60
43701;BME280;58809;47.984;7.964;2023-03-22T07:34:35;96969.03;;;16.95;50.62
43701;BME280;58809;47.984;7.964;2023-03-22T07:37:41;96977.44;;;17.10;50.40
43701;BME280;58809;47.984;7.964;2023-03-22T07:40:52;96975.16;;;17.25;50.65
43701;BME280;58809;47.984;7.964;2023-03-22T07:44:04;96978.91;;;17.36;50.37
43701;BME280;58809;47.984;7.964;2023-03-22T07:47:29;96972.66;;;17.54;50.35
43701;BME280;58809;47.984;7.964;2023-03-22T07:51:00;96965.91;;;17.63;50.28
43701;BME280;58809;47.984;7.964;2023-03-22T07:54:04;96970.22;;;17.76;50.48
43701;BME280;58809;47.984;7.964;2023-03-22T07:57:08;96960.13;;;18.02;50.66
43701;BME280;58809;47.984;7.964;2023-03-22T08:00:18;96963.59;;;18.14;49.78
43701;BME280;58809;47.984;7.964;2023-03-22T08:03:29;96964.69;;;18.42;49.69
43701;BME280;58809;47.984;7.964;2023-03-22T08:06:41;96953.34;;;18.63;49.49
43701;BME280;58809;47.984;7.964;2023-03-22T08:09:44;96955.25;;;18.80;49.04
43701;BME280;58809;47.984;7.964;2023-03-22T08:12:46;96958.25;;;18.95;49.07
43701;BME280;58809;47.984;7.964;2023-03-22T08:15:55;96956.31;;;19.08;48.79
43701;BME280;58809;47.984;7.964;2023-03-22T08:18:58;96951.97;;;19.18;48.55
43701;BME280;58809;47.984;7.964;2023-03-22T08:22:01;96960.34;;;19.39;48.27
43701;BME280;58809;47.984;7.964;2023-03-22T08:25:23;96960.81;;;19.70;47.19
43701;BME280;58809;47.984;7.964;2023-03-22T08:28:27;96957.59;;;19.85;46.44
43701;BME280;58809;47.984;7.964;2023-03-22T08:31:29;96967.09;;;19.92;45.62
43701;BME280;58809;47.984;7.964;2023-03-22T08:34:30;96960.31;;;20.29;44.77
43701;BME280;58809;47.984;7.964;2023-03-22T08:37:33;96959.47;;;20.45;44.10
43701;BME280;58809;47.984;7.964;2023-03-22T08:40:37;96948.41;;;20.64;43.55
43701;BME280;58809;47.984;7.964;2023-03-22T08:43:39;96955.03;;;20.78;42.72
43701;BME280;58809;47.984;7.964;2023-03-22T08:46:41;96946.97;;;20.78;42.81
43701;BME280;58809;47.984;7.964;2023-03-22T08:49:42;96948.38;;;21.13;42.13
43701;BME280;58809;47.984;7.964;2023-03-22T08:52:50;96952.03;;;21.29;41.89
43701;BME280;58809;47.984;7.964;2023-03-22T08:55:59;96949.78;;;21.21;41.88
43701;BME280;58809;47.984;7.964;2023-03-22T08:59:16;96945.84;;;21.28;41.72
43701;BME280;58809;47.984;7.964;2023-03-22T09:02:28;96944.97;;;21.23;41.45
43701;BME280;58809;47.984;7.964;2023-03-22T09:05:31;96943.09;;;21.23;41.58
43701;BME280;58809;47.984;7.964;2023-03-22T09:08:33;96942.31;;;21.28;41.44
43701;BME280;58809;47.984;7.964;2023-03-22T09:11:41;96949.63;;;21.32;41.29
43701;BME280;58809;47.984;7.964;2023-03-22T09:14:43;96939.13;;;21.31;41.35
43701;BME280;58809;47.984;7.964;2023-03-22T09:17:47;96944.06;;;21.44;41.11
43701;BME280;58809;47.984;7.964;2023-03-22T09:20:49;96940.16;;;21.57;40.68
43701;BME280;58809;47.984;7.964;2023-03-22T09:23:55;96946.63;;;21.56;40.20
43701;BME280;58809;47.984;7.964;2023-03-22T09:27:04;96948.31;;;21.67;39.57
43701;BME280;58809;47.984;7.964;2023-03-22T09:30:07;96929.53;;;21.78;38.98
43701;BME280;58809;47.984;7.964;2023-03-22T09:33:09;96937.09;;;21.81;38.38
43701;BME280;58809;47.984;7.964;2023-03-22T09:36:14;96938.19;;;21.80;38.39
43701;BME280;58809;47.984;7.964;2023-03-22T09:39:16;96931.13;;;21.73;38.01
43701;BME280;58809;47.984;7.964;2023-03-22T09:42:28;96929.41;;;21.57;36.11
43701;BME280;58809;47.984;7.964;2023-03-22T09:45:41;96922.97;;;21.58;35.44
43701;BME280;58809;47.984;7.964;2023-03-22T09:48:45;96905.38;;;21.88;35.79
43701;BME280;58809;47.984;7.964;2023-03-22T09:51:51;96914.09;;;22.05;35.10
43701;BME280;58809;47.984;7.964;2023-03-22T09:54:52;96917.47;;;21.85;34.91
43701;BME280;58809;47.984;7.964;2023-03-22T09:58:20;96914.09;;;22.10;34.80
43701;BME280;58809;47.984;7.964;2023-03-22T10:01:44;96898.97;;;22.04;34.62
43701;BME280;58809;47.984;7.964;2023-03-22T10:04:56;96911.44;;;22.21;34.89
43701;BME280;58809;47.984;7.964;2023-03-22T10:11:22;96897.41;;;22.14;35.77
43701;BME280;58809;47.984;7.964;2023-03-22T10:14:38;96898.09;;;21.83;35.26
43701;BME280;58809;47.984;7.964;2023-03-22T10:17:44;96899.50;;;22.01;35.36
43701;BME280;58809;47.984;7.964;2023-03-22T10:21:07;96896.38;;;22.25;35.25
43701;BME280;58809;47.984;7.964;2023-03-22T10:24:20;96880.28;;;22.45;34.78
43701;BME280;58809;47.984;7.964;2023-03-22T10:27:25;96876.28;;;22.48;34.93
43701;BME280;58809;47.984;7.964;2023-03-22T10:30:35;96887.16;;;22.05;35.30
43701;BME280;58809;47.984;7.964;2023-03-22T10:33:41;96887.41;;;22.04;35.56
43701;BME280;58809;47.984;7.964;2023-03-22T10:36:51;96890.22;;;22.29;35.68
43701;BME280;58809;47.984;7.964;2023-03-22T10:39:55;96871.88;;;22.26;35.44
43701;BME280;58809;47.984;7.964;2023-03-22T10:43:21;96881.88;;;22.26;34.99
43701;BME280;58809;47.984;7.964;2023-03-22T10:46:30;96884.56;;;22.36;35.64
43701;BME280;58809;47.984;7.964;2023-03-22T10:49:39;96882.09;;;22.24;35.77
43701;BME280;58809;47.984;7.964;2023-03-22T10:53:03;96880.84;;;22.42;36.11
43701;BME280;58809;47.984;7.964;2023-03-22T10:56:12;96878.72;;;22.60;35.28
43701;BME280;58809;47.984;7.964;2023-03-22T10:59:44;96874.94;;;22.56;35.10
43701;BME280;58809;47.984;7.964;2023-03-22T11:02:52;96881.19;;;22.77;35.22
43701;BME280;58809;47.984;7.964;2023-03-22T11:06:28;96876.63;;;22.93;35.70
43701;BME280;58809;47.984;7.964;2023-03-22T11:09:33;96881.72;;;22.89;34.89
43701;BME280;58809;47.984;7.964;2023-03-22T11:12:41;96877.41;;;22.73;35.29
43701;BME280;58809;47.984;7.964;2023-03-22T11:15:53;96879.28;;;22.67;34.72
43701;BME280;58809;47.984;7.964;2023-03-22T11:18:56;96881.41;;;22.55;35.21
43701;BME280;58809;47.984;7.964;2023-03-22T11:21:59;96884.94;;;22.65;35.32
43701;BME280;58809;47.984;7.964;2023-03-22T11:25:03;96876.31;;;22.74;35.55
43701;BME280;58809;47.984;7.964;2023-03-22T11:28:16;96904.16;;;22.90;35.30
43701;BME280;58809;47.984;7.964;2023-03-22T11:31:19;96882.84;;;23.03;34.90
43701;BME280;58809;47.984;7.964;2023-03-22T11:34:22;96882.81;;;22.83;35.05
43701;BME280;58809;47.984;7.964;2023-03-22T11:37:25;96882.84;;;23.03;35.02
43701;BME280;58809;47.984;7.964;2023-03-22T11:40:29;96868.03;;;23.16;35.03
43701;BME280;58809;47.984;7.964;2023-03-22T11:43:35;96874.78;;;23.44;34.19
43701;BME280;58809;47.984;7.964;2023-03-22T11:46:38;96870.72;;;23.47;34.45
43701;BME280;58809;47.984;7.964;2023-03-22T11:49:48;96866.91;;;23.69;34.31
43701;BME280;58809;47.984;7.964;2023-03-22T11:52:51;96869.06;;;23.51;34.37
43701;BME280;58809;47.984;7.964;2023-03-22T11:55:54;96866.09;;;23.58;34.48
43701;BME280;58809;47.984;7.964;2023-03-22T11:59:07;96848.50;;;23.81;33.59
43701;BME280;58809;47.984;7.964;2023-03-22T12:02:24;96836.28;;;24.04;32.81
43701;BME280;58809;47.984;7.964;2023-03-22T12:05:30;96855.53;;;23.82;33.49
43701;BME280;58809;47.984;7.964;2023-03-22T12:08:46;96850.13;;;23.82;33.09
43701;BME280;58809;47.984;7.964;2023-03-22T12:11:54;96855.03;;;23.54;32.80
43701;BME280;58809;47.984;7.964;2023-03-22T12:15:04;96834.53;;;23.38;33.41
43701;BME280;58809;47.984;7.964;2023-03-22T12:18:14;96845.81;;;23.66;33.35
43701;BME280;58809;47.984;7.964;2023-03-22T12:21:18;96844.13;;;24.00;32.76
43701;BME280;58809;47.984;7.964;2023-03-22T12:24:28;96838.22;;;23.88;33.05
43701;BME280;58809;47.984;7.964;2023-03-22T12:27:36;96823.56;;;24.05;32.50
43701;BME280;58809;47.984;7.964;2023-03-22T12:30:47;96831.47;;;23.96;32.09
43701;BME280;58809;47.984;7.964;2023-03-22T12:34:02;96835.81;;;24.41;31.88
43701;BME280;58809;47.984;7.964;2023-03-22T12:37:07;96831.53;;;24.30;31.42
43701;BME280;58809;47.984;7.964;2023-03-22T12:40:22;96825.06;;;24.31;31.38
43701;BME280;58809;47.984;7.964;2023-03-22T12:46:51;96824.78;;;24.33;31.94
43701;BME280;58809;47.984;7.964;2023-03-22T12:50:02;96813.69;;;24.34;31.59
43701;BME280;58809;47.984;7.964;2023-03-22T12:53:11;96815.44;;;24.59;31.91
43701;BME280;58809;47.984;7.964;2023-03-22T12:56:17;96816.22;;;24.65;32.11
43701;BME280;58809;47.984;7.964;2023-03-22T12:59:23;96816.97;;;24.76;32.38
43701;BME280;58809;47.984;7.964;2023-03-22T13:02:30;96811.13;;;24.64;32.06
43701;BME280;58809;47.984;7.964;2023-03-22T13:05:34;96801.97;;;24.89;31.90
43701;BME280;58809;47.984;7.964;2023-03-22T13:09:04;96809.00;;;24.90;32.63
43701;BME280;58809;47.984;7.964;2023-03-22T13:15:34;96792.41;;;25.02;33.18
43701;BME280;58809;47.984;7.964;2023-03-22T13:21:47;96786.13;;;25.06;32.84
43701;BME280;58809;47.984;7.964;2023-03-22T13:28:24;96781.50;;;25.41;32.01
43701;BME280;58809;47.984;7.964;2023-03-22T13:31:42;96782.31;;;25.42;31.77
43701;BME280;58809;47.984;7.964;2023-03-22T13:34:47;96780.94;;;25.44;32.44
43701;BME280;58809;47.984;7.964;2023-03-22T13:37:53;96772.16;;;25.23;32.20
43701;BME280;58809;47.984;7.964;2023-03-22T13:44:30;96784.25;;;25.36;31.80
43701;BME280;58809;47.984;7.964;2023-03-22T13:47:44;96766.63;;;25.87;31.92
43701;BME280;58809;47.984;7.964;2023-03-22T13:50:46;96760.00;;;25.74;31.40
43701;BME280;58809;47.984;7.964;2023-03-22T13:56:59;96753.06;;;25.09;32.00
43701;BME280;58809;47.984;7.964;2023-03-22T14:00:32;96746.09;;;25.03;31.49
43701;BME280;58809;47.984;7.964;2023-03-22T14:03:36;96742.41;;;24.94;31.84
43701;BME280;58809;47.984;7.964;2023-03-22T14:10:43;96742.59;;;25.32;31.61
43701;BME280;58809;47.984;7.964;2023-03-22T14:13:49;96730.97;;;25.55;31.31
43701;BME280;58809;47.984;7.964;2023-03-22T14:16:59;96741.03;;;25.74;30.96
43701;BME280;58809;47.984;7.964;2023-03-22T14:20:04;96737.72;;;26.01;30.98
43701;BME280;58809;47.984;7.964;2023-03-22T14:23:13;96735.25;;;26.05;31.04
43701;BME280;58809;47.984;7.964;2023-03-22T14:26:23;96733.97;;;25.97;30.59
43701;BME280;58809;47.984;7.964;2023-03-22T14:29:26;96730.25;;;26.69;29.88
43701;BME280;58809;47.984;7.964;2023-03-22T14:32:29;96727.06;;;27.27;29.86
43701;BME280;58809;47.984;7.964;2023-03-22T14:35:38;96720.31;;;27.53;28.95
43701;BME280;58809;47.984;7.964;2023-03-22T14:38:41;96716.97;;;26.67;29.77
43701;BME280;58809;47.984;7.964;2023-03-22T14:42:05;96718.25;;;25.99;30.68
43701;BME280;58809;47.984;7.964;2023-03-22T14:45:06;96703.09;;;25.74;30.64
43701;BME280;58809;47.984;7.964;2023-03-22T14:48:20;96711.75;;;25.76;30.70
43701;BME280;58809;47.984;7.964;2023-03-22T14:51:27;96704.00;;;25.16;31.13
43701;BME280;58809;47.984;7.964;2023-03-22T14:54:30;96711.78;;;25.28;31.22
43701;BME280;58809;47.984;7.964;2023-03-22T14:57:34;96709.31;;;25.74;31.82
43701;BME280;58809;47.984;7.964;2023-03-22T15:00:36;96703.97;;;26.64;30.65
43701;BME280;58809;47.984;7.964;2023-03-22T15:03:37;96703.16;;;26.97;30.33
43701;BME280;58809;47.984;7.964;2023-03-22T15:06:43;96695.59;;;26.94;30.05
43701;BME280;58809;47.984;7.964;2023-03-22T15:09:46;96680.44;;;27.06;29.49
43701;BME280;58809;47.984;7.964;2023-03-22T15:12:48;96685.56;;;27.08;29.57
43701;BME280;58809;47.984;7.964;2023-03-22T15:15:50;96678.75;;;27.38;29.91
43701;BME280;58809;47.984;7.964;2023-03-22T15:18:51;96671.81;;;27.46;29.45
43701;BME280;58809;47.984;7.964;2023-03-22T15:22:04;96672.72;;;27.41;29.86
43701;BME280;58809;47.984;7.964;2023-03-22T15:25:15;96672.28;;;27.62;29.50
43701;BME280;58809;47.984;7.964;2023-03-22T15:28:20;96665.28;;;27.33;29.32
43701;BME280;58809;47.984;7.964;2023-03-22T15:31:33;96675.84;;;27.49;28.75
43701;BME280;58809;47.984;7.964;2023-03-22T15:34:41;96676.44;;;27.73;28.84
43701;BME280;58809;47.984;7.964;2023-03-22T15:37:47;96672.19;;;27.67;29.21
43701;BME280;58809;47.984;7.964;2023-03-22T15:40:48;96675.91;;;27.16;29.21
43701;BME280;58809;47.984;7.964;2023-03-22T15:44:02;96669.66;;;26.87;29.72
43701;BME280;58809;47.984;7.964;2023-03-22T15:50:06;96677.19;;;26.91;29.52
43701;BME280;58809;47.984;7.964;2023-03-22T15:53:30;96682.97;;;27.17;29.66
43701;BME280;58809;47.984;7.964;2023-03-22T15:56:38;96686.59;;;27.54;29.42
43701;BME280;58809;47.984;7.964;2023-03-22T16:06:00;96676.28;;;29.05;27.97
43701;BME280;58809;47.984;7.964;2023-03-22T16:09:00;96675.09;;;29.20;27.18
43701;BME280;58809;47.984;7.964;2023-03-22T16:12:01;96682.84;;;30.28;26.01
43701;BME280;58809;47.984;7.964;2023-03-22T16:15:02;96686.22;;;30.42;25.84
43701;BME280;58809;47.984;7.964;2023-03-22T16:18:04;96680.59;;;30.30;25.78
43701;BME280;58809;47.984;7.964;2023-03-22T16:21:05;96679.91;;;30.68;25.69
43701;BME280;58809;47.984;7.964;2023-03-22T16:24:06;96678.66;;;30.22;26.35
43701;BME280;58809;47.984;7.964;2023-03-22T16:27:12;96680.41;;;30.00;26.48
43701;BME280;58809;47.984;7.964;2023-03-22T16:30:13;96689.97;;;31.11;26.13
43701;BME280;58809;47.984;7.964;2023-03-22T16:33:16;96681.78;;;31.41;25.91
43701;BME280;58809;47.984;7.964;2023-03-22T16:36:19;96682.16;;;31.90;24.52
43701;BME280;58809;47.984;7.964;2023-03-22T16:39:20;96687.84;;;30.43;25.67
43701;BME280;58809;47.984;7.964;2023-03-22T16:42:22;96677.66;;;29.25;27.04
43701;BME280;58809;47.984;7.964;2023-03-22T16:45:32;96671.59;;;27.56;28.51
43701;BME280;58809;47.984;7.964;2023-03-22T16:48:33;96682.00;;;26.47;29.44
43701;BME280;58809;47.984;7.964;2023-03-22T16:51:36;96685.31;;;26.06;29.99
43701;BME280;58809;47.984;7.964;2023-03-22T16:54:36;96690.22;;;25.85;30.48
43701;BME280;58809;47.984;7.964;2023-03-22T16:57:37;96684.75;;;25.66;30.50
43701;BME280;58809;47.984;7.964;2023-03-22T17:00:38;96691.53;;;25.68;30.49
43701;BME280;58809;47.984;7.964;2023-03-22T17:03:39;96687.97;;;25.49;30.61
43701;BME280;58809;47.984;7.964;2023-03-22T17:06:39;96689.88;;;25.24;31.53
43701;BME280;58809;47.984;7.964;2023-03-22T17:09:40;96686.16;;;25.15;31.94
43701;BME280;58809;47.984;7.964;2023-03-22T17:12:42;96696.13;;;24.66;32.61
43701;BME280;58809;47.984;7.964;2023-03-22T17:15:45;96695.69;;;24.49;33.17
43701;BME280;58809;47.984;7.964;2023-03-22T17:18:47;96693.09;;;24.33;33.15
43701;BME280;58809;47.984;7.964;2023-03-22T17:21:48;96696.50;;;23.60;34.10
43701;BME280;58809;47.984;7.964;2023-03-22T17:24:49;96695.75;;;23.39;34.74
43701;BME280;58809;47.984;7.964;2023-03-22T17:27:50;96692.63;;;22.96;35.19
43701;BME280;58809;47.984;7.964;2023-03-22T17:30:51;96700.75;;;22.55;36.61
43701;BME280;58809;47.984;7.964;2023-03-22T17:33:51;96697.72;;;21.89;38.45